Latest Weather Observations for Cleve Airport

IDS60801

Issued at 7:01 pm CDT Thursday 19 January 2017 (issued every 30 minutes, with the page automatically refreshed every 10 minutes)

About weather observations | Map of weather stations | Latest weather observations for SA | Other Formats
Station Details ID: 018116 Name: CLEVE AERODROME Lat: -33.71 Lon: 136.50 Height: 175.0 m
Data from the previous 72 hours. | See also: Recent months at Cleve Airport
Date/Time
CDT
Temp
°C
App
Temp
°C
Dew
Point
°C
Rel
Hum
%
Delta-T
°C
Wind Press
QNH
hPa
Press
MSL
hPa
Rain since
9am
mm
Dir  Spd
km/h
Gust
km/h
Spd
kts
Gust
kts
19/07:00pm 25.0 26.5 25.0 100 0.0 NW 26 37 14 20 999.4 998.6 22.6
19/06:49pm 24.6 25.5 24.6 100 0.0 WNW 28 41 15 22 999.9 999.2 20.8
19/06:30pm 24.3 27.1 24.3 100 0.0 WNW 17 26 9 14 999.9 999.2 18.4
19/06:13pm 23.6 21.8 23.6 100 0.0 NNW 39 76 21 41 1000.3 999.5 15.8
19/06:07pm 22.7 17.0 22.7 100 0.0 NNW 57 91 31 49 1000.8 1000.0 14.6
19/06:00pm 23.1 15.9 22.8 98 0.2 NW 65 91 35 49 1001.2 1000.4 9.8
19/05:54pm 24.5 21.1 23.1 92 1.0 W 46 91 25 49 1000.5 999.7 1.2
19/05:53pm 26.5 23.8 23.4 83 2.1 W 43 80 23 43 1000.5 999.7 0.2
19/05:50pm 28.8 28.1 21.8 66 4.7 WNW 28 61 15 33 999.7 999.0 0.0
19/05:47pm 31.5 32.5 21.7 56 6.7 NNW 19 46 10 25 998.7 997.9 0.0
19/05:30pm 35.0 33.9 17.2 34 11.6 E 19 22 10 12 996.8 996.0 0.0
19/05:00pm 34.4 34.5 18.4 38 10.5 E 15 22 8 12 997.5 996.7 0.0
19/04:30pm 32.4 31.7 18.2 42 9.3 ESE 19 26 10 14 998.3 997.5 0.0
19/04:00pm 32.3 29.3 14.9 35 10.8 SE 24 30 13 16 999.0 998.2 0.0
19/03:30pm 33.4 29.9 14.5 32 11.7 SSE 26 35 14 19 999.8 999.1 0.0
19/03:00pm 34.5 31.3 15.4 32 12.1 SSE 26 37 14 20 1000.8 1000.0 0.0
19/02:30pm 38.5 36.8 17.3 28 13.9 NW 22 33 12 18 1001.6 1000.8 0.0
19/02:00pm 39.4 38.2 17.5 27 14.4 NNW 20 39 11 21 1002.0 1001.2 0.0
19/01:30pm 37.5 35.3 17.0 30 13.4 NNW 24 41 13 22 1002.9 1002.1 0.0
19/01:00pm 38.0 35.6 16.3 27 14.0 NNW 24 37 13 20 1004.0 1003.2 0.0
19/12:35pm 36.4 33.1 16.0 29 13.0 NNW 28 46 15 25 1004.5 1003.8 0.0
19/12:30pm 36.6 33.4 16.2 29 13.1 NNW 28 39 15 21 1004.6 1003.9 0.0
19/12:00pm 35.8 32.9 16.0 30 12.7 NNW 26 37 14 20 1005.1 1004.4 0.0
19/11:30am 35.7 33.1 15.9 30 12.6 N 24 35 13 19 1005.5 1004.8 0.0
19/11:00am 33.2 31.0 14.3 32 11.7 NNW 19 28 10 15 1006.4 1005.6 0.0
19/10:30am 32.0 30.3 13.7 33 11.2 ENE 15 24 8 13 1006.6 1005.8 0.0
19/10:00am 27.2 24.5 14.6 46 7.6 E 22 28 12 15 1007.0 1006.2 0.0
19/09:30am 24.8 22.5 14.6 53 6.1 E 20 28 11 15 1007.7 1006.9 0.0
19/09:00am 22.5 20.5 15.4 64 4.3 E 20 26 11 14 1008.1 1007.3 0.0
19/08:30am 20.9 19.6 16.7 77 2.6 E 19 22 10 12 1008.4 1007.6 0.0
19/08:00am 19.7 19.1 16.7 83 1.8 ESE 15 19 8 10 1008.7 1007.9 0.0
19/07:30am 19.0 19.1 16.6 86 1.5 E 11 15 6 8 1008.5 1007.7 0.0
19/07:00am 18.5 18.9 16.3 87 1.3 ESE 9 11 5 6 1008.7 1007.9 0.0
19/06:30am 18.5 18.8 16.1 86 1.4 ESE 9 13 5 7 1008.8 1008.0 0.0
19/06:00am 18.5 18.1 16.1 86 1.4 ESE 13 17 7 9 1008.7 1007.9 0.0
19/05:30am 18.5 18.0 15.9 85 1.6 ESE 13 15 7 8 1009.0 1008.2 0.0
19/05:00am 18.4 17.4 15.5 83 1.7 ESE 15 17 8 9 1008.7 1007.9 0.0
19/04:30am 18.3 16.8 15.2 82 1.8 ESE 17 22 9 12 1008.7 1007.9 0.0
19/04:00am 18.2 17.0 15.1 82 1.8 ESE 15 19 8 10 1009.1 1008.3 0.0
19/03:30am 18.1 16.9 15.0 82 1.8 ESE 15 19 8 10 1009.4 1008.6 0.0
19/03:00am 18.0 16.5 15.3 84 1.6 ESE 17 22 9 12 1009.8 1009.1 0.0
19/02:30am 17.8 16.2 15.1 84 1.6 ESE 17 22 9 12 1010.1 1009.4 0.0
19/02:00am 17.8 15.8 14.9 83 1.7 ESE 19 24 10 13 1010.7 1010.0 0.0
19/01:30am 17.9 15.3 14.8 82 1.8 ESE 22 28 12 15 1010.8 1010.1 0.0
19/01:00am 18.1 15.0 14.4 79 2.1 ESE 24 32 13 17 1011.2 1010.5 0.0
19/12:30am 18.3 14.8 14.4 78 2.3 ESE 26 33 14 18 1011.5 1010.8 0.0
19/12:00am 18.2 14.6 14.3 78 2.3 ESE 26 33 14 18 1011.9 1011.2 0.0
 
Date/Time
CDT
Temp
°C
App
Temp
°C
Dew
Point
°C
Rel
Hum
%
Delta-T
°C
Wind Press
QNH
hPa
Press
MSL
hPa
Rain since
9am
mm
Dir  Spd
km/h
Gust
km/h
Spd
kts
Gust
kts
18/11:30pm 18.4 15.3 14.5 78 2.3 SE 24 32 13 17 1012.7 1011.9 0.0
18/11:00pm 18.4 15.3 14.5 78 2.3 SE 24 33 13 18 1013.0 1012.2 0.0
18/10:30pm 18.5 15.5 14.8 79 2.2 SE 24 33 13 18 1013.1 1012.3 0.0
18/10:00pm 18.3 15.6 14.6 79 2.2 ESE 22 28 12 15 1012.9 1012.1 0.0
18/09:30pm 18.3 15.6 14.6 79 2.2 SE 22 30 12 16 1012.9 1012.1 0.0
18/09:00pm 18.6 14.7 14.3 76 2.5 SE 28 37 15 20 1012.8 1012.0 0.0
18/08:30pm 19.1 15.1 14.1 73 2.9 SE 28 35 15 19 1012.8 1012.0 0.0
18/08:00pm 20.1 15.6 13.8 67 3.7 SE 30 39 16 21 1012.8 1012.0 0.0
18/07:30pm 20.3 15.4 14.2 68 3.6 SSE 33 43 18 23 1012.7 1011.9 0.0
18/07:00pm 21.8 16.9 14.4 63 4.4 SSE 33 43 18 23 1012.6 1011.8 0.0
18/06:30pm 21.5 16.2 14.2 63 4.3 SE 35 46 19 25 1012.3 1011.5 0.0
18/06:00pm 23.6 18.5 13.8 54 5.8 SE 33 43 18 23 1011.9 1011.2 0.0
18/05:30pm 23.8 18.7 13.6 52 6.0 SE 33 43 18 23 1011.9 1011.2 0.0
18/05:00pm 23.9 18.8 13.2 51 6.2 SE 32 43 17 23 1012.3 1011.5 0.0
18/04:30pm 24.5 19.4 13.1 49 6.7 ESE 32 46 17 25 1012.4 1011.6 0.0
18/04:00pm 23.6 18.4 12.9 51 6.2 ESE 32 43 17 23 1012.8 1012.0 0.0
18/03:30pm 24.5 19.2 13.1 49 6.7 ESE 33 46 18 25 1013.1 1012.3 0.0
18/03:00pm 23.6 18.1 13.5 53 5.9 SE 35 54 19 29 1013.6 1012.8 0.0
18/02:31pm 23.4 17.9 13.6 54 5.7 SE 35 54 19 29 1013.8 1013.0 0.0
18/02:30pm 22.7 16.8 13.5 56 5.4 SE 37 54 20 29 1013.8 1013.0 0.0
18/02:00pm 23.8 18.7 14.8 57 5.4 SE 35 48 19 26 1014.1 1013.3 0.0
18/01:30pm 23.0 17.8 14.6 59 5.0 SE 35 46 19 25 1014.5 1013.8 0.0
18/01:00pm 21.5 16.5 13.9 62 4.4 ESE 33 44 18 24 1014.7 1014.0 0.0
18/12:30pm 19.5 14.4 14.7 74 2.8 SE 35 44 19 24 1014.8 1014.1 0.0
18/12:00pm 19.3 14.0 14.3 73 2.9 SE 35 46 19 25 1014.8 1014.1 0.0
18/11:30am 18.6 13.3 14.3 76 2.5 SE 35 44 19 24 1014.8 1014.1 0.0
18/11:00am 18.8 13.7 14.9 78 2.3 SE 35 44 19 24 1014.8 1014.1 0.0
18/10:30am 18.8 14.4 15.1 79 2.2 ESE 32 43 17 23 1015.1 1014.4 0.0
18/10:00am 18.8 13.8 15.1 79 2.2 ESE 35 43 19 23 1015.1 1014.4 0.0
18/09:30am 18.6 13.5 14.7 78 2.3 SE 35 43 19 23 1015.3 1014.6 0.0
18/09:00am 18.2 13.1 14.9 81 1.9 SE 35 46 19 25 1015.1 1014.4 0.0
18/08:30am 18.0 12.2 14.9 82 1.8 SE 39 46 21 25 1015.0 1014.3 0.0
18/08:00am 17.9 13.3 15.2 84 1.6 SE 33 44 18 24 1014.6 1013.9 0.0
18/07:30am 17.8 13.2 16.0 89 1.1 SE 35 46 19 25 1014.3 1013.5 0.0
18/07:00am 18.2 13.5 15.8 86 1.4 SE 35 44 19 24 1013.9 1013.1 0.0
18/06:30am 18.4 14.5 15.6 84 1.7 SE 30 39 16 21 1013.7 1012.9 0.0
18/06:00am 18.5 14.3 15.7 84 1.7 SE 32 41 17 22 1013.1 1012.3 0.0
18/05:30am 18.4 14.7 16.0 86 1.4 SE 30 41 16 22 1012.7 1011.9 0.0
18/05:00am 18.5 15.4 16.5 88 1.2 SE 28 37 15 20 1011.8 1011.1 0.0
18/04:30am 18.3 16.4 16.8 91 0.9 ESE 22 30 12 16 1011.2 1010.5 0.0
18/04:00am 17.6 15.8 16.1 91 0.9 ESE 20 24 11 13 1010.8 1010.1 0.0
18/03:30am 17.5 15.6 15.8 90 1.0 ESE 20 26 11 14 1010.6 1009.9 0.0
18/03:00am 17.6 15.7 15.8 89 1.1 ESE 20 28 11 15 1010.9 1010.2 0.0
18/02:30am 17.7 15.7 15.5 87 1.3 ESE 20 28 11 15 1011.1 1010.4 0.0
18/02:00am 18.0 15.6 15.3 84 1.6 ESE 22 28 12 15 1011.5 1010.8 0.0
18/01:30am 18.3 15.1 15.4 83 1.7 ESE 26 32 14 17 1011.9 1011.2 0.0
18/01:00am 18.5 16.4 16.1 86 1.4 ESE 22 30 12 16 1012.1 1011.3 0.0
18/12:30am 18.8 15.5 16.0 84 1.7 ESE 28 35 15 19 1012.1 1011.3 0.0
18/12:00am 18.9 16.8 16.1 84 1.7 ESE 22 30 12 16 1012.2 1011.4 0.0
 
Date/Time
CDT
Temp
°C
App
Temp
°C
Dew
Point
°C
Rel
Hum
%
Delta-T
°C
Wind Press
QNH
hPa
Press
MSL
hPa
Rain since
9am
mm
Dir  Spd
km/h
Gust
km/h
Spd
kts
Gust
kts
17/11:30pm 19.2 16.7 16.1 82 1.9 SE 24 30 13 16 1012.3 1011.5 0.0
17/11:00pm 19.3 17.2 16.3 83 1.8 SE 22 30 12 16 1012.4 1011.6 0.0
17/10:30pm 19.6 16.8 16.3 81 2.0 SE 26 33 14 18 1012.2 1011.4 0.0
17/10:00pm 19.4 18.0 17.0 86 1.5 ESE 20 24 11 13 1011.4 1010.7 0.0
17/09:30pm 19.3 17.5 16.0 81 2.0 SE 20 28 11 15 1011.6 1010.9 0.0
17/09:00pm 19.5 17.5 15.4 77 2.4 SSE 20 30 11 16 1011.7 1011.0 0.0
17/08:30pm 19.7 17.1 16.0 79 2.2 S 24 33 13 18 1011.6 1010.9 0.0
17/08:00pm 20.9 17.6 16.1 74 2.9 S 28 46 15 25 1011.2 1010.5 0.0
17/07:59pm 20.9 17.6 16.1 74 2.9 S 28 46 15 25 1011.2 1010.5 0.0
17/07:30pm 23.0 17.1 15.8 64 4.4 S 41 54 22 29 1010.2 1009.5 0.0
17/07:00pm 27.9 20.4 11.0 35 9.7 S 41 54 22 29 1009.1 1008.3 0.0
17/06:51pm 28.6 21.2 9.8 31 10.6 S 39 54 21 29 1008.5 1007.7 0.0
17/06:30pm 33.6 27.3 9.0 22 14.0 SSE 32 39 17 21 1007.7 1006.9 0.0
17/06:00pm 34.7 27.3 6.9 18 15.5 SSE 35 43 19 23 1006.9 1006.1 0.0
17/05:30pm 35.2 27.6 8.9 20 15.1 SSE 39 46 21 25 1006.4 1005.6 0.0
17/05:00pm 37.4 28.9 3.2 12 18.2 S 37 59 20 32 1005.5 1004.8 0.0
17/04:59pm 37.5 29.6 4.4 13 17.9 SSW 35 59 19 32 1005.5 1004.8 0.0
17/04:30pm 41.5 34.1 -3.3 6 22.1 WNW 26 59 14 32 1005.2 1004.5 0.0
17/04:28pm 42.1 35.2 -2.9 6 22.4 WNW 24 59 13 32 1005.0 1004.3 0.0
17/04:00pm 42.1 36.5 -2.9 6 22.4 WNW 17 35 9 19 1005.5 1004.8 0.0
17/03:30pm 41.0 35.0 -1.6 7 21.5 WNW 20 32 11 17 1005.5 1004.8 0.0
17/03:00pm 41.6 35.9 -1.1 7 21.8 WNW 19 33 10 18 1005.8 1005.1 0.0
17/02:30pm 40.8 34.1 -3.8 6 21.8 WNW 22 39 12 21 1006.2 1005.4 0.0
17/02:00pm 42.0 36.0 -2.9 6 22.3 NW 19 30 10 16 1006.7 1005.9 0.0
17/01:30pm 39.8 33.1 -4.5 6 21.2 WNW 22 37 12 20 1006.9 1006.1 0.0
17/01:00pm 39.8 32.9 -2.4 7 20.8 WNW 24 37 13 20 1007.2 1006.4 0.0
17/12:30pm 39.7 32.6 -4.6 6 21.2 NW 24 35 13 19 1007.5 1006.7 0.0
17/12:00pm 39.4 31.1 -4.8 6 21.0 NNW 30 39 16 21 1007.6 1006.8 0.0
17/11:30am 38.6 30.5 -3.3 7 20.3 NW 30 39 16 21 1008.0 1007.2 0.0
17/11:00am 38.8 31.1 -3.2 7 20.4 NNW 28 39 15 21 1008.0 1007.2 0.0
17/10:30am 37.7 30.1 -2.2 8 19.5 NNW 28 39 15 21 1008.0 1007.2 0.0
17/10:00am 37.3 29.3 -2.4 8 19.3 NNW 30 44 16 24 1008.0 1007.2 0.0
17/09:30am 35.8 28.6 -2.0 9 18.3 NNW 26 33 14 18 1008.1 1007.3 0.0
17/09:00am 33.6 26.9 1.4 13 16.3 N 26 33 14 18 1008.2 1007.4 0.0
17/08:30am 31.7 24.7 1.9 15 15.0 N 28 37 15 20 1008.0 1007.2 0.0
17/08:00am 30.0 23.1 2.3 17 13.9 N 28 35 15 19 1007.8 1007.0 0.0
17/07:30am 27.4 20.3 3.8 22 12.0 N 30 33 16 18 1007.9 1007.1 0.0
17/07:00am 25.8 19.5 3.7 24 11.0 N 26 32 14 17 1007.8 1007.0 0.0
17/06:30am 24.6 18.9 4.9 28 10.0 NNW 24 28 13 15 1007.6 1006.8 0.0
17/06:00am 25.2 20.3 4.3 26 10.5 NNW 19 22 10 12 1007.4 1006.6 0.0
17/05:30am 25.2 20.8 4.9 27 10.3 NNW 17 20 9 11 1007.4 1006.6 0.0
17/05:00am 23.3 19.9 5.7 32 9.0 N 13 15 7 8 1007.4 1006.6 0.0
17/04:30am 21.6 18.2 5.9 36 8.0 N 13 17 7 9 1007.5 1006.7 0.0
17/04:00am 23.8 19.6 5.7 31 9.3 N 17 20 9 11 1007.8 1007.0 0.0
17/03:30am 22.7 18.4 6.9 36 8.2 NNE 19 20 10 11 1007.9 1007.1 0.0
17/03:00am 20.4 16.7 8.1 45 6.5 NE 17 19 9 10 1008.1 1007.3 0.0
17/02:30am 20.5 17.7 8.5 46 6.3 NNE 13 15 7 8 1008.5 1007.7 0.0
17/02:00am 21.7 19.8 7.5 40 7.4 NNE 7 11 4 6 1008.7 1007.9 0.0
17/01:30am 22.4 20.3 8.1 40 7.6 NNE 9 11 5 6 1009.0 1008.2 0.0
17/01:00am 21.4 19.1 9.0 45 6.6 NE 11 13 6 7 1009.1 1008.3 0.0
17/12:30am 22.4 19.0 9.2 43 7.1 NE 17 19 9 10 1009.5 1008.8 0.0
17/12:00am 21.8 18.4 9.3 45 6.8 ENE 17 19 9 10 1009.8 1009.1 0.0
 
Date/Time
CDT
Temp
°C
App
Temp
°C
Dew
Point
°C
Rel
Hum
%
Delta-T
°C
Wind Press
QNH
hPa
Press
MSL
hPa
Rain since
9am
mm
Dir  Spd
km/h
Gust
km/h
Spd
kts
Gust
kts
16/11:30pm 22.7 19.7 9.1 42 7.4 ENE 15 19 8 10 1009.9 1009.2 0.0
16/11:00pm 22.2 19.7 9.7 45 6.8 NE 13 15 7 8 1009.9 1009.2 0.0
16/10:30pm 22.5 20.7 9.6 44 7.0 E 9 13 5 7 1009.8 1009.1 0.0
16/10:00pm 23.2 22.3 10.6 45 7.0 ENE 6 9 3 5 1009.9 1009.2 0.0
16/09:30pm 23.7 22.1 11.4 46 7.0 ENE 11 13 6 7 1009.7 1009.0 0.0
16/09:00pm 25.9 23.2 10.5 38 8.7 SE 15 20 8 11 1009.6 1008.9 0.0
16/08:30pm 27.9 24.4 8.7 30 10.6 ESE 17 20 9 11 1009.4 1008.6 0.0
16/08:00pm 30.2 25.2 8.0 25 12.2 SE 24 32 13 17 1009.0 1008.2 0.0
16/07:30pm 31.4 25.3 8.4 24 12.9 SE 30 39 16 21 1008.6 1007.8 0.0
16/07:04pm 33.4 27.1 8.8 22 14.0 SE 32 50 17 27 1008.2 1007.4 0.0

Other Formats:

Comma delimited format used in spreadsheet applications
http://www.bom.gov.au/fwo/IDS60801/IDS60801.94662.axf

JavaScript Object Notation format (JSON) in row-major order
http://www.bom.gov.au/fwo/IDS60801/IDS60801.94662.json